Language selection

My Weather Profile Weather Topics  | 

Atlantic - Labrador: Past 24 Hour Conditions

 

Nain Airport

11:00 AM AST 01 February 2023
Disclaimer

This table is a summary of hourly weather conditions for the past 24 hours.
Please note that these observations might not always be representative of weather conditions over their associated marine area.

Date / Time
(AST)
Wind(knots) Conditions Visibility(km) Pressure(kPa) Air tempC) Relative humidity(%) Dew pointC) Wind Chill
01 February 2023
11:00 WSW 8 gust 15 Partly Cloudy 24 101.1 -26 52 -33 -36
10:00 S 4 Partly Cloudy 24 101.1 -28 58 -33 -35
9:00 W 5 Mainly Sunny 24 101.1 -27 56 -33 -35
8:00 W 5 Clear 24 101.1 -27 54 -33 -35
7:00 SW 6 Clear 24 101.1 -28 59 -34 -38
6:00 SW 4 Clear 24 101.1 -28 61 -33 -35
5:00 WNW 4 Clear 24 101.1 -27 55 -33 -34
4:00 N/A N/A N/A 101.1 -28 60 -33 *
3:00 N/A N/A N/A 101.1 -28 60 -34 *
2:00 N/A N/A N/A 101.2 -26 55 -32 *
1:00 N/A N/A N/A 101.2 -27 58 -33 *
0:00 N/A N/A N/A 101.3 -29 61 -34 *
31 January 2023
23:00 N/A N/A N/A 101.4 -29 55 -35 *
22:00 N/A N/A N/A 101.4 -29 60 -34 *
21:00 N/A N/A N/A 101.5 -29 60 -34 *
20:00 WNW 8 Clear 24 101.5 -28 54 -34 -39
19:00 SSW 2 Clear 24 101.6 -28 54 -34 -31
18:00 W 3 Clear 24 101.6 -27 52 -34 -33
17:00 WSW 3 Clear 24 101.6 -28 57 -34 -33
16:00 W 4 Sunny 24 101.7 -27 53 -34 -34
15:00 SW 4 Sunny 24 101.7 -27 49 -34 -33
14:00 SSE 2 Sunny 24 101.7 -27 56 -33 -31
13:00 ENE 2 Sunny 24 101.8 -27 57 -33 -30
12:00 E 2 Sunny 24 101.9 -28 55 -34 -31
11:00 N 1 Sunny 24 101.9 -29 56 -35 -31

Zoom-in to make a selection

Map of Atlantic - Labrador marine weather areas Kangiqsualujjuaq Airport Cape Kakkiviak Cape Kiglapait Cartwright Airport CFB Goose Bay Hopedale Mary's Harbour Nain Airport Makkovik Airport Saglek Tukialik Bay
Legend:
buoy Buoy
land station Land Station

Atlantic - Labrador Area

Another Region

What we are doing

Date modified: